Time;durP1;ratioP1;P1;durP2;ratioP2;P2;SDS_P1;SDS_P2;PMS_P1;PMS_P2;Temp;Humidity;BMP_temperature;BMP_pressure;BME280_temperature;BME280_humidity;BME280_pressure;Samples;Min_cycle;Max_cycle;Signal;HPM_P1;HPM_P2
2022/04/19 00:00:43;;;;;;;30.00;16.20;;;10.50;99.90;;;;;;5020863;28;20056;-63
2022/04/19 00:03:11;;;;;;;28.30;16.23;;;10.50;99.90;;;;;;5030246;28;20104;-64
2022/04/19 00:05:37;;;;;;;32.78;18.35;;;10.50;99.90;;;;;;5019529;28;20038;-64
2022/04/19 00:08:04;;;;;;;32.90;18.08;;;10.50;99.90;;;;;;5017644;28;20037;-63
2022/04/19 00:10:29;;;;;;;32.88;18.90;;;10.40;99.90;;;;;;5021053;28;20511;-65
2022/04/19 00:12:56;;;;;;;30.23;18.35;;;10.40;99.90;;;;;;5039397;28;20017;-62
2022/04/19 00:15:23;;;;;;;33.65;19.75;;;10.40;99.90;;;;;;5040315;28;20384;-66
2022/04/19 00:17:49;;;;;;;31.67;18.33;;;10.40;99.90;;;;;;5041744;28;20390;-63
2022/04/19 00:20:15;;;;;;;32.42;17.80;;;10.40;99.90;;;;;;5046548;28;20063;-62
2022/04/19 00:22:40;;;;;;;31.48;18.27;;;10.40;99.90;;;;;;5042366;28;20021;-63
2022/04/19 00:25:07;;;;;;;31.58;19.33;;;10.40;99.90;;;;;;5030422;28;20754;-63
2022/04/19 00:27:33;;;;;;;31.83;18.52;;;10.40;99.90;;;;;;5026894;28;218043;-62
2022/04/19 00:29:59;;;;;;;33.50;19.17;;;10.40;99.90;;;;;;5045992;28;20033;-65
2022/04/19 00:32:25;;;;;;;32.80;19.70;;;10.40;99.90;;;;;;5042894;28;20029;-63
2022/04/19 00:34:51;;;;;;;32.25;19.73;;;10.40;99.90;;;;;;5041307;28;20026;-63
2022/04/19 00:37:18;;;;;;;33.85;19.83;;;10.50;99.90;;;;;;5048179;28;20087;-63
2022/04/19 00:39:43;;;;;;;34.60;20.25;;;10.50;99.90;;;;;;5053718;28;20368;-64
2022/04/19 00:42:09;;;;;;;36.03;20.35;;;10.50;99.90;;;;;;5061392;28;20044;-63
2022/04/19 00:44:37;;;;;;;34.20;19.63;;;10.50;99.90;;;;;;5056349;28;20637;-63
2022/04/19 00:47:05;;;;;;;31.83;19.77;;;10.50;99.90;;;;;;5060967;28;20025;-63
2022/04/19 00:49:33;;;;;;;34.53;20.48;;;10.50;99.90;;;;;;5057167;28;20526;-63
2022/04/19 00:52:00;;;;;;;34.08;20.80;;;10.50;99.90;;;;;;5059134;28;20089;-63
2022/04/19 00:54:26;;;;;;;33.97;20.20;;;10.50;99.90;;;;;;5054688;28;20021;-65
2022/04/19 00:56:53;;;;;;;35.67;21.35;;;10.50;99.90;;;;;;5054205;28;20040;-64
2022/04/19 00:59:21;;;;;;;36.85;20.92;;;10.50;99.90;;;;;;5047956;28;20039;-63
2022/04/19 01:01:46;;;;;;;36.13;21.60;;;10.50;99.90;;;;;;5049812;28;20026;-65
2022/04/19 01:04:12;;;;;;;35.78;21.83;;;10.50;99.90;;;;;;5045451;28;20043;-63
2022/04/19 01:06:37;;;;;;;35.50;21.55;;;10.50;99.90;;;;;;5045791;28;20029;-64
2022/04/19 01:09:03;;;;;;;35.38;22.88;;;10.50;99.90;;;;;;5045841;28;20368;-64
2022/04/19 01:14:15;;;;;;;37.35;23.25;;;10.40;99.90;;;;;;5047975;28;20036;-64
2022/04/19 01:16:41;;;;;;;35.28;21.63;;;10.40;99.90;;;;;;5037494;28;20029;-63
2022/04/19 01:19:17;;;;;;;35.55;22.02;;;10.40;99.90;;;;;;5051303;28;20519;-62
2022/04/19 01:21:54;;;;;;;36.78;22.58;;;10.40;99.90;;;;;;5049522;28;20033;-64
2022/04/19 01:24:22;;;;;;;35.65;21.92;;;10.30;99.90;;;;;;5053768;28;20025;-64
2022/04/19 01:26:51;;;;;;;37.60;22.75;;;10.30;99.90;;;;;;5047267;28;20132;-62
2022/04/19 01:29:17;;;;;;;36.55;23.08;;;10.30;99.90;;;;;;5046974;28;20033;-63
2022/04/19 01:31:45;;;;;;;39.72;23.65;;;10.30;99.90;;;;;;5035255;28;20044;-63
2022/04/19 01:34:11;;;;;;;36.15;23.00;;;10.30;99.90;;;;;;5034711;28;20021;-63
2022/04/19 01:36:37;;;;;;;37.40;22.88;;;10.30;99.90;;;;;;5039651;28;20047;-63
2022/04/19 01:39:04;;;;;;;40.70;23.70;;;10.30;99.90;;;;;;5039378;28;20111;-63
2022/04/19 01:41:30;;;;;;;37.42;22.88;;;10.30;99.90;;;;;;5052405;28;20087;-63
2022/04/19 01:43:55;;;;;;;40.47;23.27;;;10.20;99.90;;;;;;5051002;28;20473;-63
2022/04/19 01:46:23;;;;;;;37.05;22.73;;;10.20;99.90;;;;;;5055175;28;20361;-65
2022/04/19 01:48:51;;;;;;;39.03;23.67;;;10.20;99.90;;;;;;5050727;28;20028;-64
2022/04/19 01:51:17;;;;;;;36.35;22.48;;;10.20;99.90;;;;;;5054607;28;20059;-64
2022/04/19 01:53:43;;;;;;;37.67;23.27;;;10.20;99.90;;;;;;5049387;28;20109;-65
2022/04/19 01:56:09;;;;;;;39.03;23.95;;;10.20;99.90;;;;;;5042758;28;20037;-63
2022/04/19 01:58:35;;;;;;;40.05;24.08;;;10.10;99.90;;;;;;5053758;28;20025;-65
2022/04/19 02:01:00;;;;;;;38.15;24.02;;;10.10;99.90;;;;;;5052530;28;20056;-65
2022/04/19 02:03:26;;;;;;;36.53;22.55;;;10.10;99.90;;;;;;5053577;28;20283;-63
2022/04/19 02:05:51;;;;;;;38.45;23.75;;;10.10;99.90;;;;;;5040931;28;20044;-65
2022/04/19 02:08:17;;;;;;;37.33;22.95;;;10.00;99.90;;;;;;5043331;28;20384;-66
2022/04/19 02:10:42;;;;;;;37.08;22.80;;;10.00;99.90;;;;;;5049522;28;20025;-67
2022/04/19 02:13:08;;;;;;;38.65;24.15;;;10.00;99.90;;;;;;5052365;28;20025;-63
2022/04/19 02:15:33;;;;;;;41.28;24.48;;;10.00;99.90;;;;;;5049234;28;20480;-63
2022/04/19 02:17:59;;;;;;;37.42;23.20;;;9.90;99.90;;;;;;5051396;28;20029;-63
2022/04/19 02:20:25;;;;;;;41.35;25.23;;;9.80;99.90;;;;;;5052870;28;20029;-63
2022/04/19 02:22:51;;;;;;;39.45;22.98;;;9.80;99.90;;;;;;5052905;28;20437;-63
2022/04/19 02:25:17;;;;;;;40.20;24.75;;;9.80;99.90;;;;;;5047890;28;20036;-63
2022/04/19 02:27:43;;;;;;;37.97;24.05;;;9.70;99.90;;;;;;5046881;28;20126;-62
2022/04/19 02:30:14;;;;;;;38.75;24.17;;;9.70;99.90;;;;;;5058789;28;20037;-63
2022/04/19 02:32:50;;;;;;;44.63;25.13;;;9.60;99.90;;;;;;5049152;28;20017;-62
2022/04/19 02:35:23;;;;;;;42.03;25.75;;;9.60;99.90;;;;;;5056228;28;20462;-63
2022/04/19 02:37:53;;;;;;;40.47;25.25;;;9.60;99.90;;;;;;5052721;28;20025;-63
2022/04/19 02:40:21;;;;;;;41.22;25.33;;;9.60;99.90;;;;;;5055942;28;20107;-63
2022/04/19 02:42:51;;;;;;;40.15;25.25;;;9.50;99.90;;;;;;5056596;28;20028;-63
2022/04/19 02:45:19;;;;;;;35.90;22.92;;;9.50;99.90;;;;;;5062051;28;20380;-63
2022/04/19 02:47:45;;;;;;;44.53;26.13;;;9.40;99.90;;;;;;5057978;28;20473;-63
2022/04/19 02:50:12;;;;;;;42.47;25.73;;;9.40;99.90;;;;;;5053207;28;20045;-63
2022/04/19 02:52:38;;;;;;;38.90;24.75;;;9.40;99.90;;;;;;5063285;28;20055;-63
2022/04/19 02:55:04;;;;;;;40.88;24.10;;;9.40;99.90;;;;;;5052563;28;20017;-63
2022/04/19 02:57:29;;;;;;;39.72;24.17;;;9.30;99.90;;;;;;5051055;28;20098;-63
2022/04/19 02:59:55;;;;;;;38.72;24.70;;;9.30;99.90;;;;;;5062014;28;20722;-62
2022/04/19 03:02:20;;;;;;;39.90;23.00;;;9.20;99.90;;;;;;5063710;28;20368;-63
2022/04/19 03:04:46;;;;;;;39.63;24.02;;;9.20;99.90;;;;;;5052073;28;20081;-63
2022/04/19 03:07:14;;;;;;;40.33;23.63;;;9.20;99.90;;;;;;5043129;28;20216;-63
2022/04/19 03:09:42;;;;;;;40.30;23.10;;;9.20;99.90;;;;;;5061983;28;20033;-63
2022/04/19 03:12:14;;;;;;;41.53;24.83;;;9.20;99.90;;;;;;5065982;28;20086;-63
2022/04/19 03:14:41;;;;;;;41.20;24.23;;;9.20;99.90;;;;;;5056401;28;20049;-64
2022/04/19 03:17:07;;;;;;;37.75;23.60;;;9.10;99.90;;;;;;5049892;28;20120;-64
2022/04/19 03:19:33;;;;;;;42.40;24.98;;;9.10;99.90;;;;;;5052066;28;20499;-64
2022/04/19 03:21:58;;;;;;;36.63;22.13;;;9.10;99.90;;;;;;5061445;28;20043;-62
2022/04/19 03:29:52;;;;;;;38.80;23.15;;;9.10;99.90;;;;;;5045937;28;20518;-67
2022/04/19 03:32:19;;;;;;;37.45;23.13;;;9.10;99.90;;;;;;5065423;28;20033;-67
2022/04/19 03:34:46;;;;;;;37.35;22.20;;;9.00;99.90;;;;;;5061291;28;20023;-65
2022/04/19 03:37:11;;;;;;;41.38;25.38;;;9.00;99.90;;;;;;5065864;28;20040;-65
2022/04/19 03:39:37;;;;;;;43.72;27.17;;;9.00;99.90;;;;;;5066211;28;20075;-63
2022/04/19 03:42:03;;;;;;;44.55;27.35;;;8.90;99.90;;;;;;5054399;28;20064;-63
2022/04/19 03:44:31;;;;;;;42.10;25.13;;;8.90;99.90;;;;;;5059285;28;20028;-64
2022/04/19 03:47:08;;;;;;;44.88;28.17;;;8.90;99.90;;;;;;5051973;28;20135;-67
2022/04/19 03:49:38;;;;;;;45.35;28.55;;;8.90;99.90;;;;;;5052341;28;20059;-68
2022/04/19 03:52:06;;;;;;;49.67;30.38;;;8.90;99.90;;;;;;5061201;28;20040;-65
2022/04/19 03:54:34;;;;;;;51.15;31.05;;;8.90;99.90;;;;;;5044927;28;20028;-64
2022/04/19 03:57:04;;;;;;;51.00;31.58;;;8.90;99.90;;;;;;5063898;28;20520;-62
2022/04/19 03:59:31;;;;;;;54.22;32.38;;;8.90;99.90;;;;;;5064139;28;20467;-64
2022/04/19 04:01:56;;;;;;;52.33;30.85;;;8.90;99.90;;;;;;5062812;28;20033;-64
2022/04/19 04:04:22;;;;;;;52.03;32.75;;;8.90;99.90;;;;;;5043506;28;20566;-63
2022/04/19 04:06:48;;;;;;;56.92;33.55;;;8.90;99.90;;;;;;5054793;28;20033;-67
2022/04/19 04:09:14;;;;;;;54.00;32.22;;;8.90;99.90;;;;;;5052301;28;20027;-63
2022/04/19 04:11:39;;;;;;;56.30;32.85;;;8.90;99.90;;;;;;5051714;28;20029;-63
2022/04/19 04:14:05;;;;;;;55.35;32.65;;;8.90;99.90;;;;;;5048300;28;20033;-63
2022/04/19 04:16:30;;;;;;;51.92;30.88;;;8.90;99.90;;;;;;5040474;28;20068;-63
2022/04/19 04:18:56;;;;;;;46.72;28.15;;;8.90;99.90;;;;;;5051077;28;20060;-63
2022/04/19 04:21:21;;;;;;;41.28;26.55;;;8.80;99.90;;;;;;5050972;28;20065;-63
2022/04/19 04:23:48;;;;;;;42.25;27.08;;;8.80;99.90;;;;;;5034160;28;20040;-63
2022/04/19 04:26:14;;;;;;;42.72;26.27;;;8.70;99.90;;;;;;5050950;28;20053;-63
2022/04/19 04:28:40;;;;;;;47.03;28.65;;;8.70;99.90;;;;;;5047057;28;20020;-63
2022/04/19 04:31:06;;;;;;;43.35;27.67;;;8.70;99.90;;;;;;5050633;28;20024;-63
2022/04/19 04:33:32;;;;;;;46.90;28.63;;;8.60;99.90;;;;;;5048651;28;20067;-64
2022/04/19 04:35:58;;;;;;;46.45;29.30;;;8.60;99.90;;;;;;5047419;28;20485;-63
2022/04/19 04:38:23;;;;;;;44.63;27.65;;;8.50;99.90;;;;;;5049672;28;20058;-65
2022/04/19 04:40:49;;;;;;;47.92;29.98;;;8.50;99.90;;;;;;5050726;28;20021;-65
2022/04/19 04:43:14;;;;;;;48.45;29.42;;;8.50;99.90;;;;;;5047167;28;20036;-64
2022/04/19 04:45:40;;;;;;;46.30;28.15;;;8.50;99.90;;;;;;5045279;28;20034;-64
2022/04/19 04:50:50;;;;;;;51.97;30.73;;;8.40;99.90;;;;;;5066498;28;20432;-67
2022/04/19 04:53:15;;;;;;;49.10;30.98;;;8.40;99.90;;;;;;5052010;28;20111;-63
2022/04/19 04:55:41;;;;;;;51.20;30.42;;;8.40;99.90;;;;;;5065980;28;20021;-63
2022/04/19 04:58:10;;;;;;;48.30;27.38;;;8.40;99.90;;;;;;5053409;28;20036;-62
2022/04/19 05:00:35;;;;;;;46.40;29.00;;;8.40;99.90;;;;;;5053796;28;20040;-64
2022/04/19 05:03:01;;;;;;;47.03;28.20;;;8.40;99.90;;;;;;5055357;28;20377;-65
2022/04/19 05:05:27;;;;;;;43.33;27.48;;;8.40;99.90;;;;;;5056209;28;20013;-65
2022/04/19 05:07:52;;;;;;;45.95;26.80;;;8.50;99.90;;;;;;5060181;28;20098;-65
2022/04/19 05:10:18;;;;;;;48.80;29.40;;;8.50;99.90;;;;;;5058899;28;20506;-64
2022/04/19 05:12:43;;;;;;;51.63;30.50;;;8.50;99.90;;;;;;5050159;28;20027;-63
2022/04/19 05:15:09;;;;;;;49.25;28.60;;;8.50;99.90;;;;;;5054732;28;20021;-64
2022/04/19 05:17:35;;;;;;;46.80;28.00;;;8.60;99.90;;;;;;5058781;28;20391;-68
2022/04/19 05:20:00;;;;;;;44.63;28.20;;;8.70;99.90;;;;;;5059918;28;20372;-64
2022/04/19 05:22:26;;;;;;;43.78;27.35;;;8.70;99.90;;;;;;5061519;28;20060;-65
2022/04/19 05:24:52;;;;;;;44.42;26.75;;;8.80;99.90;;;;;;5058607;28;20034;-65
2022/04/19 05:27:17;;;;;;;43.17;25.35;;;8.90;99.90;;;;;;5058333;28;20041;-65
2022/04/19 05:29:43;;;;;;;46.63;27.00;;;9.00;99.90;;;;;;5055024;28;20025;-64
2022/04/19 05:32:09;;;;;;;46.28;27.30;;;9.00;99.90;;;;;;5044048;28;20522;-64
2022/04/19 05:34:35;;;;;;;47.65;26.40;;;9.10;99.90;;;;;;5057100;28;20028;-66
2022/04/19 05:37:00;;;;;;;42.63;26.15;;;9.20;99.90;;;;;;5055487;28;20033;-66
2022/04/19 05:39:26;;;;;;;43.28;26.60;;;9.30;99.90;;;;;;5067980;28;20099;-64
2022/04/19 05:41:51;;;;;;;46.92;27.33;;;9.40;99.90;;;;;;5068884;28;20081;-66
2022/04/19 05:44:17;;;;;;;83.03;31.30;;;9.50;99.90;;;;;;5055444;28;20507;-66
2022/04/19 05:46:42;;;;;;;50.97;27.20;;;9.60;99.90;;;;;;5036764;28;20025;-65
2022/04/19 05:49:08;;;;;;;43.38;25.98;;;9.70;99.90;;;;;;5053697;28;20028;-66
2022/04/19 05:51:34;;;;;;;42.38;25.48;;;9.80;99.90;;;;;;5067207;28;20378;-66
2022/04/19 05:54:00;;;;;;;39.63;24.20;;;10.00;99.90;;;;;;5058280;28;20116;-64
2022/04/19 05:56:26;;;;;;;37.33;22.42;;;10.10;99.90;;;;;;5059797;28;20055;-67
2022/04/19 05:58:52;;;;;;;33.42;20.35;;;10.30;99.90;;;;;;5057872;28;20029;-65
2022/04/19 06:01:18;;;;;;;30.52;18.85;;;10.40;99.90;;;;;;5048255;28;20035;-66
2022/04/19 06:06:28;;;;;;;26.40;15.95;;;10.80;99.90;;;;;;5056220;28;20108;-65
2022/04/19 06:08:54;;;;;;;27.17;16.08;;;10.90;99.90;;;;;;5051616;28;20041;-64
2022/04/19 06:11:21;;;;;;;28.83;15.57;;;11.10;99.90;;;;;;5056296;28;20036;-65
2022/04/19 06:13:47;;;;;;;26.90;15.55;;;11.20;99.90;;;;;;5067271;28;20500;-66
2022/04/19 06:16:13;;;;;;;24.80;14.15;;;11.40;99.90;;;;;;5063063;28;20064;-65
2022/04/19 06:18:39;;;;;;;27.58;14.27;;;11.60;99.90;;;;;;5056716;28;20112;-67
2022/04/19 06:21:05;;;;;;;26.08;13.77;;;11.70;99.90;;;;;;5055358;28;20120;-66
2022/04/19 06:23:32;;;;;;;26.08;14.85;;;11.90;99.90;;;;;;5069315;28;20437;-64
2022/04/19 06:25:58;;;;;;;25.02;12.82;;;12.00;99.90;;;;;;5062044;28;20349;-64
2022/04/19 06:28:24;;;;;;;24.95;12.63;;;12.20;99.90;;;;;;5060555;28;20036;-64
2022/04/19 06:30:49;;;;;;;22.35;12.63;;;12.40;99.90;;;;;;5046084;28;20053;-63
2022/04/19 06:33:15;;;;;;;23.23;12.90;;;12.60;99.90;;;;;;5067226;28;20433;-66
2022/04/19 06:35:41;;;;;;;23.40;12.95;;;12.80;99.90;;;;;;5063313;28;20041;-66
2022/04/19 06:38:07;;;;;;;22.48;12.02;;;13.10;99.90;;;;;;5044967;28;20104;-68
2022/04/19 06:40:33;;;;;;;20.45;12.55;;;13.30;99.90;;;;;;5058464;28;20147;-65
2022/04/19 06:42:58;;;;;;;22.63;11.98;;;13.60;99.90;;;;;;5051317;28;20040;-68
2022/04/19 06:45:24;;;;;;;23.83;11.20;;;13.90;99.90;;;;;;5069842;28;20100;-68
2022/04/19 06:48:01;;;;;;;21.77;11.07;;;14.30;99.90;;;;;;5045158;28;20041;-69
2022/04/19 06:50:27;;;;;;;21.55;11.23;;;14.80;99.90;;;;;;5051773;28;20029;-67
2022/04/19 06:52:53;;;;;;;20.55;10.65;;;15.30;99.40;;;;;;5069575;28;20028;-67
2022/04/19 06:55:20;;;;;;;21.80;11.60;;;15.80;98.60;;;;;;5053568;28;20044;-67
2022/04/19 06:57:46;;;;;;;24.45;10.85;;;16.40;97.40;;;;;;5051301;28;20039;-63
2022/04/19 07:00:13;;;;;;;18.85;10.25;;;17.00;96.70;;;;;;5052335;28;20033;-67
2022/04/19 07:02:38;;;;;;;20.80;10.30;;;17.60;95.50;;;;;;5051525;28;20354;-66
2022/04/19 07:05:04;;;;;;;20.35;9.40;;;18.20;93.90;;;;;;5033523;28;20053;-66
2022/04/19 07:07:31;;;;;;;20.00;9.68;;;18.70;91.90;;;;;;5032222;28;20029;-64
2022/04/19 07:09:57;;;;;;;19.23;9.75;;;19.00;90.20;;;;;;5039078;28;20532;-63
2022/04/19 07:12:22;;;;;;;24.17;10.15;;;19.30;86.80;;;;;;5048107;28;20104;-63
2022/04/19 07:14:48;;;;;;;20.55;10.02;;;19.60;85.40;;;;;;5053000;28;20373;-63
2022/04/19 07:17:14;;;;;;;20.42;9.85;;;19.80;83.70;;;;;;5053122;28;20462;-63
2022/04/19 07:28:01;;;;;;;19.00;8.68;;;20.00;79.00;;;;;;5061691;28;20075;-66
2022/04/19 07:30:28;;;;;;;21.38;9.25;;;20.20;77.70;;;;;;5042453;28;20020;-65
2022/04/19 07:32:55;;;;;;;18.75;8.80;;;20.40;76.30;;;;;;5062529;28;20051;-67
2022/04/19 07:35:20;;;;;;;18.92;9.10;;;20.60;74.80;;;;;;5057062;28;20016;-64
2022/04/19 07:37:46;;;;;;;16.83;8.27;;;20.80;75.60;;;;;;5061479;28;20036;-68
2022/04/19 07:40:12;;;;;;;18.00;8.90;;;20.90;73.60;;;;;;5055879;28;20024;-66
2022/04/19 07:42:38;;;;;;;19.10;9.30;;;21.00;72.80;;;;;;5049566;28;20040;-64
2022/04/19 07:45:04;;;;;;;19.65;9.00;;;21.20;72.60;;;;;;5051047;28;20021;-67
2022/04/19 07:47:33;;;;;;;17.45;8.90;;;21.30;72.20;;;;;;5061472;28;20055;-67
2022/04/19 07:49:58;;;;;;;18.25;8.05;;;21.40;70.90;;;;;;5062916;28;20036;-65
2022/04/19 07:52:24;;;;;;;17.65;8.50;;;21.50;70.50;;;;;;5053796;28;20105;-65
2022/04/19 07:54:50;;;;;;;18.40;8.23;;;21.50;69.50;;;;;;5052405;28;20025;-66
2022/04/19 07:57:21;;;;;;;17.85;7.65;;;21.50;69.00;;;;;;5058397;28;20032;-64
2022/04/19 07:59:47;;;;;;;17.45;7.78;;;21.50;68.40;;;;;;5065488;28;20363;-66
2022/04/19 08:02:14;;;;;;;16.45;9.00;;;21.60;68.40;;;;;;5059182;28;20083;-65
2022/04/19 08:04:40;;;;;;;18.95;8.02;;;21.90;68.40;;;;;;5053896;28;20502;-63
2022/04/19 08:07:06;;;;;;;16.30;7.70;;;22.30;67.10;;;;;;5061137;28;20024;-63
2022/04/19 08:09:32;;;;;;;17.75;8.90;;;22.60;66.60;;;;;;5052945;28;20033;-66
2022/04/19 08:11:58;;;;;;;17.02;7.93;;;22.90;65.90;;;;;;5046107;28;20452;-65
2022/04/19 08:14:24;;;;;;;17.88;8.48;;;23.20;65.60;;;;;;5054109;28;20027;-66
2022/04/19 08:16:50;;;;;;;20.42;9.13;;;23.20;64.10;;;;;;5068544;28;20119;-63
2022/04/19 08:19:16;;;;;;;18.63;7.40;;;23.20;65.00;;;;;;5071024;28;20048;-63
2022/04/19 08:21:41;;;;;;;17.27;8.05;;;23.40;63.50;;;;;;5057931;28;20025;-63
2022/04/19 08:24:07;;;;;;;14.35;6.68;;;23.50;64.00;;;;;;5055246;28;20075;-64
2022/04/19 08:26:33;;;;;;;14.23;6.72;;;23.90;63.40;;;;;;5051894;28;20086;-66
2022/04/19 08:28:58;;;;;;;13.68;5.90;;;24.40;61.20;;;;;;5051138;28;20054;-65
2022/04/19 08:31:24;;;;;;;13.40;6.15;;;24.90;60.50;;;;;;5062572;28;20017;-64
2022/04/19 08:33:50;;;;;;;13.43;6.07;;;25.30;59.20;;;;;;5064973;28;20448;-65
2022/04/19 08:36:15;;;;;;;13.65;5.60;;;25.80;58.60;;;;;;5065372;28;20029;-65
2022/04/19 08:38:41;;;;;;;13.43;5.82;;;26.10;57.40;;;;;;5049135;28;20024;-66
2022/04/19 08:41:06;;;;;;;12.88;6.13;;;26.50;56.30;;;;;;5049427;28;20419;-66
2022/04/19 08:43:32;;;;;;;12.80;5.55;;;26.80;55.00;;;;;;5044311;28;20036;-62
2022/04/19 08:45:58;;;;;;;15.43;6.10;;;27.00;54.00;;;;;;5066618;28;20025;-63
2022/04/19 08:48:26;;;;;;;14.85;6.45;;;27.40;53.50;;;;;;5053859;28;20040;-65
2022/04/19 08:50:54;;;;;;;13.55;6.28;;;27.70;52.30;;;;;;5064562;28;20009;-65
2022/04/19 08:58:52;;;;;;;12.02;6.10;;;27.70;49.00;;;;;;5068685;28;20032;-67
2022/04/19 09:01:17;;;;;;;14.20;6.03;;;27.60;49.50;;;;;;5058581;28;20029;-65
2022/04/19 09:03:43;;;;;;;16.85;6.50;;;27.90;49.00;;;;;;5068308;28;20036;-63
2022/04/19 09:06:08;;;;;;;13.65;6.22;;;28.40;48.80;;;;;;5059074;28;20036;-63
2022/04/19 09:08:34;;;;;;;12.82;5.70;;;28.90;47.90;;;;;;5071270;28;20016;-64
2022/04/19 09:11:07;;;;;;;14.73;6.63;;;29.30;46.60;;;;;;5058081;28;20013;-63
2022/04/19 09:13:33;;;;;;;13.27;6.28;;;29.60;45.80;;;;;;5068058;28;20111;-64
2022/04/19 09:16:06;;;;;;;13.05;6.15;;;29.50;45.40;;;;;;5059073;28;20520;-64
2022/04/19 09:18:35;;;;;;;14.20;6.40;;;29.60;45.60;;;;;;5039837;28;20100;-64
2022/04/19 09:21:05;;;;;;;10.88;5.65;;;29.90;44.90;;;;;;5058199;28;20150;-64
2022/04/19 09:23:32;;;;;;;11.40;6.07;;;30.00;44.70;;;;;;5052308;28;20027;-64
2022/04/19 09:26:00;;;;;;;11.50;5.65;;;30.00;45.00;;;;;;5042670;28;20531;-63
2022/04/19 09:28:26;;;;;;;12.45;6.00;;;30.10;44.00;;;;;;5062888;28;20074;-66
2022/04/19 09:30:57;;;;;;;16.60;7.13;;;30.00;43.50;;;;;;5063531;28;20021;-64
2022/04/19 09:34:45;;;;;;;11.68;6.45;;;30.00;43.70;;;;;;5061695;28;20333;-64
2022/04/19 09:37:14;;;;;;;11.25;5.63;;;30.20;43.50;;;;;;5057026;28;20115;-63
2022/04/19 09:39:42;;;;;;;12.57;6.07;;;30.50;42.00;;;;;;5048675;28;20513;-65
2022/04/19 09:42:14;;;;;;;10.00;5.28;;;30.50;42.10;;;;;;5050194;28;20052;-66
2022/04/19 09:44:43;;;;;;;11.57;5.85;;;30.50;40.80;;;;;;5052271;28;20046;-64
2022/04/19 09:47:11;;;;;;;13.32;6.80;;;30.20;41.40;;;;;;5053296;28;20759;-64
2022/04/19 09:49:52;;;;;;;14.25;6.90;;;30.40;41.20;;;;;;5065530;28;20024;-63
2022/04/19 09:52:21;;;;;;;14.15;7.30;;;30.50;40.80;;;;;;5069405;28;20078;-63
2022/04/19 09:55:03;;;;;;;14.80;7.40;;;30.40;40.90;;;;;;5056466;28;20090;-63
2022/04/19 09:57:30;;;;;;;;;;;30.40;41.30;;;;;;5064539;28;20044;-67
2022/04/19 09:59:56;;;;;;;13.95;7.32;;;30.20;40.70;;;;;;5064382;28;19904;-62
2022/04/19 10:08:11;;;;;;;13.85;7.30;;;30.10;41.30;;;;;;5054567;28;20071;-62
2022/04/19 10:10:41;;;;;;;13.43;6.78;;;30.20;40.50;;;;;;5051669;28;20021;-63
2022/04/19 10:13:07;;;;;;;15.52;7.75;;;30.30;41.00;;;;;;5052182;28;20021;-63
2022/04/19 10:15:34;;;;;;;13.07;7.20;;;30.50;40.40;;;;;;5053587;28;20016;-63
2022/04/19 10:18:00;;;;;;;14.18;7.10;;;30.70;40.70;;;;;;5071073;28;20420;-63
2022/04/19 10:20:31;;;;;;;15.75;7.63;;;30.80;40.40;;;;;;5054633;28;20078;-63
2022/04/19 10:23:01;;;;;;;13.85;6.43;;;31.00;40.50;;;;;;5059365;28;20016;-62
2022/04/19 10:25:40;;;;;;;15.85;7.18;;;30.90;40.40;;;;;;5064768;28;20017;-64
2022/04/19 10:28:10;;;;;;;14.23;6.57;;;30.70;40.00;;;;;;5054033;28;20037;-63
2022/04/19 10:30:37;;;;;;;12.85;6.78;;;30.60;40.30;;;;;;5054482;28;20025;-64
2022/04/19 10:33:40;;;;;;;13.80;6.82;;;30.70;40.20;;;;;;5072027;28;20056;-63
2022/04/19 10:36:12;;;;;;;13.35;6.82;;;30.60;40.00;;;;;;5057005;28;20500;-63
2022/04/19 10:38:37;;;;;;;14.63;7.47;;;30.80;40.50;;;;;;5053762;28;20029;-63
2022/04/19 10:41:03;;;;;;;15.55;6.53;;;30.90;40.00;;;;;;5053991;28;20078;-64
2022/04/19 10:43:29;;;;;;;16.40;6.95;;;30.80;40.00;;;;;;5053383;28;20024;-63
2022/04/19 10:46:21;;;;;;;13.63;5.93;;;30.60;39.60;;;;;;5053825;28;20461;-64
2022/04/19 10:49:24;;;;;;;13.43;6.60;;;30.50;39.90;;;;;;5056656;28;20025;-65
2022/04/19 10:51:59;;;;;;;14.70;6.75;;;30.60;39.50;;;;;;5073729;28;20036;-63
2022/04/19 10:55:06;;;;;;;12.10;6.20;;;30.90;39.20;;;;;;5053197;28;20021;-63
2022/04/19 11:00:30;;;;;;;14.65;6.75;;;31.00;39.30;;;;;;5055945;28;20104;-65
2022/04/19 11:03:01;;;;;;;14.93;7.18;;;31.00;39.10;;;;;;5047550;28;20028;-64
2022/04/19 11:05:54;;;;;;;13.65;6.80;;;31.10;38.80;;;;;;5061280;28;20013;-64
2022/04/19 11:08:25;;;;;;;16.65;7.38;;;31.40;39.00;;;;;;5043425;28;20044;-63
2022/04/19 11:11:20;;;;;;;13.57;7.43;;;31.60;39.80;;;;;;5066322;28;20021;-66
2022/04/19 11:14:20;;;;;;;15.23;7.43;;;31.60;38.80;;;;;;5052568;28;20357;-64
2022/04/19 11:16:50;;;;;;;14.70;7.43;;;31.90;39.50;;;;;;5039192;28;20024;-64
2022/04/19 11:19:21;;;;;;;15.40;7.45;;;32.10;38.20;;;;;;5064655;28;20169;-66
2022/04/19 11:21:49;;;;;;;14.10;7.07;;;32.00;38.60;;;;;;5055848;28;20074;-66
2022/04/19 11:24:52;;;;;;;14.95;7.90;;;31.90;39.00;;;;;;5045292;28;20380;-65
2022/04/19 11:27:20;;;;;;;14.77;7.13;;;31.80;38.00;;;;;;5056226;28;20048;-67
2022/04/19 11:29:50;;;;;;;17.38;8.07;;;32.00;39.00;;;;;;5051336;28;20026;-64
2022/04/19 11:32:23;;;;;;;15.25;7.43;;;31.80;39.10;;;;;;5057029;28;20133;-64
2022/04/19 11:35:02;;;;;;;15.77;7.75;;;31.50;38.30;;;;;;5050552;28;20029;-64
2022/04/19 11:37:30;;;;;;;15.57;7.75;;;31.50;38.90;;;;;;5051489;28;20362;-67
2022/04/19 11:48:30;;;;;;;17.02;7.72;;;31.20;38.00;;;;;;5052426;28;20092;-66
2022/04/19 11:51:21;;;;;;;15.77;6.75;;;31.30;37.60;;;;;;5052676;28;20025;-66
2022/04/19 11:53:52;;;;;;;15.90;6.75;;;31.60;36.40;;;;;;5051711;28;20127;-67
2022/04/19 11:56:18;;;;;;;12.88;5.32;;;31.90;37.00;;;;;;5052786;28;20033;-66
2022/04/19 11:58:51;;;;;;;10.90;5.60;;;31.80;34.50;;;;;;5052918;28;20103;-66
2022/04/19 12:01:17;;;;;;;15.30;7.30;;;31.50;35.80;;;;;;5052206;28;20022;-65
2022/04/19 12:03:43;;;;;;;13.35;6.22;;;31.30;37.10;;;;;;5052069;28;20098;-63
2022/04/19 12:06:14;;;;;;;12.95;6.63;;;31.30;36.90;;;;;;5052235;28;20025;-64
2022/04/19 12:08:41;;;;;;;;;;;30.90;36.60;;;;;;5052920;28;20024;-66
2022/04/19 12:11:28;;;;;;;15.18;7.05;;;30.50;37.70;;;;;;5036538;28;19915;-65
2022/04/19 12:13:54;;;;;;;16.83;7.90;;;30.30;37.70;;;;;;5041902;28;20033;-64
2022/04/19 12:16:29;;;;;;;16.02;7.60;;;30.40;38.60;;;;;;5051028;28;20037;-66
2022/04/19 12:18:56;;;;;;;18.02;7.65;;;30.50;38.20;;;;;;5052606;28;20017;-64
2022/04/19 12:21:43;;;;;;;15.55;7.90;;;30.60;38.30;;;;;;5052273;28;20029;-66
2022/04/19 12:24:20;;;;;;;16.85;7.90;;;30.40;38.10;;;;;;5052503;28;20076;-65
2022/04/19 12:27:06;;;;;;;15.30;7.53;;;30.00;38.80;;;;;;5052616;28;20059;-63
2022/04/19 12:29:36;;;;;;;17.02;7.93;;;29.90;39.00;;;;;;5055196;28;20032;-65
2022/04/19 12:32:04;;;;;;;18.48;8.25;;;30.00;39.10;;;;;;5055924;28;20029;-64
2022/04/19 12:34:33;;;;;;;16.30;7.85;;;30.20;39.30;;;;;;5056340;28;20036;-64
2022/04/19 12:37:10;;;;;;;16.13;8.25;;;30.10;39.20;;;;;;5056113;28;20029;-66
2022/04/19 12:39:36;;;;;;;18.33;8.75;;;30.10;39.70;;;;;;5070296;28;20453;-65
2022/04/19 12:42:09;;;;;;;18.17;8.27;;;29.90;39.90;;;;;;5064736;28;20095;-67
2022/04/19 12:44:37;;;;;;;17.77;8.80;;;29.80;39.80;;;;;;5049711;28;20025;-65
2022/04/19 12:47:12;;;;;;;20.10;8.65;;;29.80;39.90;;;;;;5050889;28;20071;-66
2022/04/19 12:49:46;;;;;;;17.42;8.32;;;29.40;39.90;;;;;;5050357;28;20026;-66
2022/04/19 12:52:13;;;;;;;18.95;8.55;;;29.00;40.70;;;;;;5048768;28;20029;-65
2022/04/19 12:54:41;;;;;;;20.02;8.63;;;28.50;41.80;;;;;;5043923;28;20365;-65
2022/04/19 12:57:12;;;;;;;16.80;7.78;;;28.20;42.30;;;;;;5036232;28;20182;-66
2022/04/19 12:59:38;;;;;;;18.30;7.88;;;27.70;42.90;;;;;;5055616;28;20021;-67
2022/04/19 13:02:04;;;;;;;19.25;8.40;;;27.10;43.90;;;;;;5057725;28;20025;-65
2022/04/19 13:04:30;;;;;;;19.65;8.05;;;26.60;44.10;;;;;;5066259;28;20028;-65
2022/04/19 13:12:28;;;;;;;17.60;8.10;;;25.50;44.90;;;;;;5050353;28;20381;-65
2022/04/19 13:14:59;;;;;;;18.00;8.13;;;25.10;45.70;;;;;;5041021;28;20528;-65
2022/04/19 13:17:27;;;;;;;19.35;7.72;;;24.70;46.70;;;;;;5049418;28;20033;-65
2022/04/19 13:19:53;;;;;;;18.13;7.45;;;24.30;47.10;;;;;;5047409;28;20021;-64
2022/04/19 13:22:19;;;;;;;17.92;7.28;;;24.00;47.50;;;;;;5048644;28;20094;-63
2022/04/19 13:24:44;;;;;;;19.27;7.72;;;23.90;47.60;;;;;;5055911;28;20059;-63
2022/04/19 13:27:11;;;;;;;17.00;7.57;;;23.80;47.90;;;;;;5054916;28;20132;-64
2022/04/19 13:29:39;;;;;;;22.23;8.77;;;23.60;48.10;;;;;;5052922;28;20442;-64
2022/04/19 13:32:05;;;;;;;18.13;7.50;;;23.50;48.90;;;;;;5044030;28;20437;-63